sensor_id;sensor_type;location;lat;lon;timestamp;pressure;altitude;pressure_sealevel;temperature;humidity
77003;BME280;65939;50.060;14.288;2023-09-18T00:00:21;97119.44;;;18.81;80.83
77003;BME280;65939;50.060;14.288;2023-09-18T00:02:22;97122.28;;;18.79;81.26
77003;BME280;65939;50.060;14.288;2023-09-18T00:04:23;97123.28;;;18.78;81.07
77003;BME280;65939;50.060;14.288;2023-09-18T00:06:23;97117.63;;;18.75;81.82
77003;BME280;65939;50.060;14.288;2023-09-18T00:08:25;97119.69;;;18.73;80.78
77003;BME280;65939;50.060;14.288;2023-09-18T00:10:26;97125.34;;;18.70;81.37
77003;BME280;65939;50.060;14.288;2023-09-18T00:12:27;97117.84;;;18.66;81.51
77003;BME280;65939;50.060;14.288;2023-09-18T00:14:27;97118.88;;;18.65;81.30
77003;BME280;65939;50.060;14.288;2023-09-18T00:16:28;97118.88;;;18.65;81.34
77003;BME280;65939;50.060;14.288;2023-09-18T00:18:29;97125.38;;;18.63;81.06
77003;BME280;65939;50.060;14.288;2023-09-18T00:20:29;97118.69;;;18.60;81.72
77003;BME280;65939;50.060;14.288;2023-09-18T00:22:30;97119.69;;;18.59;81.70
77003;BME280;65939;50.060;14.288;2023-09-18T00:24:31;97115.44;;;18.58;81.75
77003;BME280;65939;50.060;14.288;2023-09-18T00:26:32;97116.47;;;18.57;81.86
77003;BME280;65939;50.060;14.288;2023-09-18T00:28:33;97114.84;;;18.56;81.81
77003;BME280;65939;50.060;14.288;2023-09-18T00:30:33;97117.69;;;18.55;81.97
77003;BME280;65939;50.060;14.288;2023-09-18T00:32:34;97111.59;;;18.54;81.71
77003;BME280;65939;50.060;14.288;2023-09-18T00:34:35;97114.25;;;18.54;82.01
77003;BME280;65939;50.060;14.288;2023-09-18T00:36:35;97117.50;;;18.50;81.99
77003;BME280;65939;50.060;14.288;2023-09-18T00:38:36;97108.75;;;18.49;81.82
77003;BME280;65939;50.060;14.288;2023-09-18T00:40:37;97104.72;;;18.47;82.21
77003;BME280;65939;50.060;14.288;2023-09-18T00:42:38;97103.09;;;18.46;82.08
77003;BME280;65939;50.060;14.288;2023-09-18T00:44:39;97106.97;;;18.43;82.14
77003;BME280;65939;50.060;14.288;2023-09-18T00:46:40;97103.94;;;18.39;81.75
77003;BME280;65939;50.060;14.288;2023-09-18T00:48:41;97098.28;;;18.36;81.71
77003;BME280;65939;50.060;14.288;2023-09-18T00:50:44;97095.00;;;18.34;82.16
77003;BME280;65939;50.060;14.288;2023-09-18T00:52:45;97097.25;;;18.30;82.36
77003;BME280;65939;50.060;14.288;2023-09-18T00:54:48;97086.28;;;18.27;82.59
77003;BME280;65939;50.060;14.288;2023-09-18T00:56:48;97089.16;;;18.25;83.15
77003;BME280;65939;50.060;14.288;2023-09-18T00:58:54;97093.81;;;18.23;83.38
77003;BME280;65939;50.060;14.288;2023-09-18T01:00:55;97091.59;;;18.20;83.16
77003;BME280;65939;50.060;14.288;2023-09-18T01:02:56;97089.38;;;18.17;83.46
77003;BME280;65939;50.060;14.288;2023-09-18T01:04:57;97080.84;;;18.15;83.93
77003;BME280;65939;50.060;14.288;2023-09-18T01:06:59;97074.97;;;18.13;83.12
77003;BME280;65939;50.060;14.288;2023-09-18T01:09:04;97077.59;;;18.13;83.86
77003;BME280;65939;50.060;14.288;2023-09-18T01:13:55;97068.25;;;18.10;84.30
77003;BME280;65939;50.060;14.288;2023-09-18T01:16:05;97069.28;;;18.09;84.34
77003;BME280;65939;50.060;14.288;2023-09-18T01:18:09;97057.09;;;18.08;84.40
77003;BME280;65939;50.060;14.288;2023-09-18T01:20:11;97065.03;;;18.08;84.00
77003;BME280;65939;50.060;14.288;2023-09-18T01:22:19;97061.56;;;18.08;84.57
77003;BME280;65939;50.060;14.288;2023-09-18T01:24:20;97058.94;;;18.08;84.62
77003;BME280;65939;50.060;14.288;2023-09-18T01:26:20;97066.06;;;18.07;84.75
77003;BME280;65939;50.060;14.288;2023-09-18T01:28:21;97058.31;;;18.06;85.35
77003;BME280;65939;50.060;14.288;2023-09-18T01:30:21;97059.34;;;18.05;84.99
77003;BME280;65939;50.060;14.288;2023-09-18T01:32:27;97048.78;;;18.05;85.07
77003;BME280;65939;50.060;14.288;2023-09-18T01:34:37;97037.41;;;18.04;84.84
77003;BME280;65939;50.060;14.288;2023-09-18T01:36:40;97042.88;;;18.03;85.03
77003;BME280;65939;50.060;14.288;2023-09-18T01:38:42;97043.09;;;18.01;85.12
77003;BME280;65939;50.060;14.288;2023-09-18T01:40:43;97037.19;;;17.99;84.97
77003;BME280;65939;50.060;14.288;2023-09-18T01:42:46;97034.56;;;17.99;85.25
77003;BME280;65939;50.060;14.288;2023-09-18T01:44:47;97027.66;;;17.98;85.49
77003;BME280;65939;50.060;14.288;2023-09-18T01:46:50;97034.97;;;17.96;85.57
77003;BME280;65939;50.060;14.288;2023-09-18T01:48:52;97028.06;;;17.95;85.48
77003;BME280;65939;50.060;14.288;2023-09-18T01:50:53;97029.09;;;17.94;85.42
77003;BME280;65939;50.060;14.288;2023-09-18T01:52:54;97027.28;;;17.94;85.35
77003;BME280;65939;50.060;14.288;2023-09-18T01:54:54;97027.50;;;17.93;85.46
77003;BME280;65939;50.060;14.288;2023-09-18T01:56:55;97035.41;;;17.93;86.19
77003;BME280;65939;50.060;14.288;2023-09-18T01:58:56;97032.97;;;17.91;85.23
77003;BME280;65939;50.060;14.288;2023-09-18T02:01:00;97031.53;;;17.89;85.28
77003;BME280;65939;50.060;14.288;2023-09-18T02:03:01;97030.16;;;17.86;85.52
77003;BME280;65939;50.060;14.288;2023-09-18T02:05:01;97030.34;;;17.85;86.43
77003;BME280;65939;50.060;14.288;2023-09-18T02:07:05;97023.84;;;17.81;86.54
77003;BME280;65939;50.060;14.288;2023-09-18T02:09:06;97019.78;;;17.78;86.34
77003;BME280;65939;50.060;14.288;2023-09-18T02:11:10;97022.66;;;17.77;86.29
77003;BME280;65939;50.060;14.288;2023-09-18T02:13:10;97018.56;;;17.74;86.80
77003;BME280;65939;50.060;14.288;2023-09-18T02:15:11;97020.41;;;17.74;86.74
77003;BME280;65939;50.060;14.288;2023-09-18T02:17:12;97004.97;;;17.70;87.22
77003;BME280;65939;50.060;14.288;2023-09-18T02:19:13;96997.25;;;17.69;87.67
77003;BME280;65939;50.060;14.288;2023-09-18T02:21:20;96994.00;;;17.67;87.39
77003;BME280;65939;50.060;14.288;2023-09-18T02:23:21;96988.94;;;17.65;87.99
77003;BME280;65939;50.060;14.288;2023-09-18T02:25:22;96979.38;;;17.64;87.90
77003;BME280;65939;50.060;14.288;2023-09-18T02:27:23;96971.47;;;17.64;88.12
77003;BME280;65939;50.060;14.288;2023-09-18T02:29:23;96968.22;;;17.62;87.96
77003;BME280;65939;50.060;14.288;2023-09-18T02:31:24;96978.19;;;17.60;88.64
77003;BME280;65939;50.060;14.288;2023-09-18T02:33:25;96974.16;;;17.58;89.39
77003;BME280;65939;50.060;14.288;2023-09-18T02:35:25;96967.22;;;17.57;89.39
77003;BME280;65939;50.060;14.288;2023-09-18T02:37:26;96970.28;;;17.54;88.90
77003;BME280;65939;50.060;14.288;2023-09-18T02:39:29;96964.59;;;17.50;88.96
77003;BME280;65939;50.060;14.288;2023-09-18T02:41:30;96969.28;;;17.48;89.54
77003;BME280;65939;50.060;14.288;2023-09-18T02:43:30;96967.88;;;17.45;89.40
77003;BME280;65939;50.060;14.288;2023-09-18T02:45:31;96969.09;;;17.43;90.21
77003;BME280;65939;50.060;14.288;2023-09-18T02:47:31;96963.22;;;17.41;90.29
77003;BME280;65939;50.060;14.288;2023-09-18T02:49:34;96966.25;;;17.38;89.66
77003;BME280;65939;50.060;14.288;2023-09-18T02:51:34;96963.22;;;17.34;90.41
77003;BME280;65939;50.060;14.288;2023-09-18T02:53:35;96963.63;;;17.31;90.50
77003;BME280;65939;50.060;14.288;2023-09-18T02:55:36;96960.59;;;17.28;91.12
77003;BME280;65939;50.060;14.288;2023-09-18T02:57:37;96956.53;;;17.25;90.77
77003;BME280;65939;50.060;14.288;2023-09-18T02:59:38;96948.22;;;17.21;91.19
77003;BME280;65939;50.060;14.288;2023-09-18T03:01:38;96948.44;;;17.20;91.96
77003;BME280;65939;50.060;14.288;2023-09-18T03:03:39;96957.78;;;17.16;91.73
77003;BME280;65939;50.060;14.288;2023-09-18T03:05:43;96950.50;;;17.11;92.50
77003;BME280;65939;50.060;14.288;2023-09-18T03:07:44;96945.63;;;17.08;92.56
77003;BME280;65939;50.060;14.288;2023-09-18T03:09:45;96947.88;;;17.05;92.29
77003;BME280;65939;50.060;14.288;2023-09-18T03:11:45;96942.19;;;17.01;93.45
77003;BME280;65939;50.060;14.288;2023-09-18T03:13:47;96940.75;;;16.98;93.82
77003;BME280;65939;50.060;14.288;2023-09-18T03:15:47;96938.53;;;16.95;93.66
77003;BME280;65939;50.060;14.288;2023-09-18T03:17:50;96938.75;;;16.94;94.03
77003;BME280;65939;50.060;14.288;2023-09-18T03:19:51;96940.75;;;16.92;93.94
77003;BME280;65939;50.060;14.288;2023-09-18T03:21:51;96942.81;;;16.90;93.67
77003;BME280;65939;50.060;14.288;2023-09-18T03:23:52;96945.03;;;16.86;94.41
77003;BME280;65939;50.060;14.288;2023-09-18T03:25:52;96942.59;;;16.85;94.73
77003;BME280;65939;50.060;14.288;2023-09-18T03:27:55;96939.38;;;16.83;94.04
77003;BME280;65939;50.060;14.288;2023-09-18T03:29:57;96938.53;;;16.82;94.76
77003;BME280;65939;50.060;14.288;2023-09-18T03:31:57;96935.47;;;16.79;94.50
77003;BME280;65939;50.060;14.288;2023-09-18T03:33:59;96927.78;;;16.77;94.36
77003;BME280;65939;50.060;14.288;2023-09-18T03:35:59;96919.25;;;16.75;94.75
77003;BME280;65939;50.060;14.288;2023-09-18T03:38:00;96923.72;;;16.74;95.58
77003;BME280;65939;50.060;14.288;2023-09-18T03:40:01;96918.81;;;16.71;95.36
77003;BME280;65939;50.060;14.288;2023-09-18T03:42:04;96911.94;;;16.70;95.87
77003;BME280;65939;50.060;14.288;2023-09-18T03:44:04;96917.22;;;16.70;94.74
77003;BME280;65939;50.060;14.288;2023-09-18T03:46:06;96908.91;;;16.67;94.84
77003;BME280;65939;50.060;14.288;2023-09-18T03:48:07;96915.38;;;16.64;95.68
77003;BME280;65939;50.060;14.288;2023-09-18T03:50:11;96910.50;;;16.61;94.62
77003;BME280;65939;50.060;14.288;2023-09-18T03:52:12;96908.09;;;16.60;93.99
77003;BME280;65939;50.060;14.288;2023-09-18T03:54:13;96907.69;;;16.56;94.27
77003;BME280;65939;50.060;14.288;2023-09-18T03:56:13;96906.25;;;16.53;95.60
77003;BME280;65939;50.060;14.288;2023-09-18T03:58:14;96905.66;;;16.51;95.16
77003;BME280;65939;50.060;14.288;2023-09-18T04:00:15;96898.97;;;16.49;95.96
77003;BME280;65939;50.060;14.288;2023-09-18T04:02:16;96897.34;;;16.48;96.45
77003;BME280;65939;50.060;14.288;2023-09-18T04:04:17;96891.47;;;16.46;96.66
77003;BME280;65939;50.060;14.288;2023-09-18T04:06:17;96890.88;;;16.44;96.92
77003;BME280;65939;50.060;14.288;2023-09-18T04:08:20;96892.25;;;16.40;97.20
77003;BME280;65939;50.060;14.288;2023-09-18T04:10:21;96896.94;;;16.38;97.11
77003;BME280;65939;50.060;14.288;2023-09-18T04:12:23;96892.06;;;16.35;98.11
77003;BME280;65939;50.060;14.288;2023-09-18T04:14:24;96884.78;;;16.30;97.83
77003;BME280;65939;50.060;14.288;2023-09-18T04:16:25;96885.19;;;16.27;98.30
77003;BME280;65939;50.060;14.288;2023-09-18T04:18:28;96891.66;;;16.24;97.61
77003;BME280;65939;50.060;14.288;2023-09-18T04:20:28;96890.03;;;16.23;98.19
77003;BME280;65939;50.060;14.288;2023-09-18T04:22:29;96891.25;;;16.21;97.91
77003;BME280;65939;50.060;14.288;2023-09-18T04:24:30;96887.81;;;16.20;97.51
77003;BME280;65939;50.060;14.288;2023-09-18T04:26:31;96888.00;;;16.19;96.96
77003;BME280;65939;50.060;14.288;2023-09-18T04:28:31;96884.53;;;16.18;97.79
77003;BME280;65939;50.060;14.288;2023-09-18T04:30:33;96878.88;;;16.15;97.16
77003;BME280;65939;50.060;14.288;2023-09-18T04:32:34;96881.72;;;16.13;97.25
77003;BME280;65939;50.060;14.288;2023-09-18T04:34:34;96882.75;;;16.12;97.15
77003;BME280;65939;50.060;14.288;2023-09-18T04:36:35;96887.38;;;16.10;97.22
77003;BME280;65939;50.060;14.288;2023-09-18T04:38:37;96887.78;;;16.07;96.98
77003;BME280;65939;50.060;14.288;2023-09-18T04:40:38;96893.03;;;16.07;97.88
77003;BME280;65939;50.060;14.288;2023-09-18T04:42:39;96902.78;;;16.07;97.18
77003;BME280;65939;50.060;14.288;2023-09-18T04:44:40;96902.34;;;16.03;98.74
77003;BME280;65939;50.060;14.288;2023-09-18T04:46:41;96902.34;;;16.03;97.90
77003;BME280;65939;50.060;14.288;2023-09-18T04:48:42;96896.28;;;16.02;96.39
77003;BME280;65939;50.060;14.288;2023-09-18T04:50:43;96884.94;;;16.02;96.43
77003;BME280;65939;50.060;14.288;2023-09-18T04:52:44;96889.41;;;16.01;96.81
77003;BME280;65939;50.060;14.288;2023-09-18T04:54:45;96890.22;;;16.02;96.32
77003;BME280;65939;50.060;14.288;2023-09-18T04:56:45;96892.03;;;16.01;96.26
77003;BME280;65939;50.060;14.288;2023-09-18T04:58:46;96884.31;;;16.00;97.00
77003;BME280;65939;50.060;14.288;2023-09-18T05:00:52;96885.97;;;16.01;95.92
77003;BME280;65939;50.060;14.288;2023-09-18T05:02:53;96887.75;;;16.00;97.02
77003;BME280;65939;50.060;14.288;2023-09-18T05:04:55;96887.56;;;16.02;97.43
77003;BME280;65939;50.060;14.288;2023-09-18T05:06:56;96884.94;;;16.02;96.60
77003;BME280;65939;50.060;14.288;2023-09-18T05:08:57;96881.28;;;16.03;96.27
77003;BME280;65939;50.060;14.288;2023-09-18T05:10:58;96883.75;;;16.04;97.42
77003;BME280;65939;50.060;14.288;2023-09-18T05:12:59;96877.06;;;16.09;96.38
77003;BME280;65939;50.060;14.288;2023-09-18T05:14:59;96882.13;;;16.10;97.72
77003;BME280;65939;50.060;14.288;2023-09-18T05:17:00;96874.84;;;16.12;97.88
77003;BME280;65939;50.060;14.288;2023-09-18T05:19:01;96865.91;;;16.13;98.13
77003;BME280;65939;50.060;14.288;2023-09-18T05:21:02;96860.44;;;16.15;98.21
77003;BME280;65939;50.060;14.288;2023-09-18T05:23:04;96862.66;;;16.18;98.36
77003;BME280;65939;50.060;14.288;2023-09-18T05:25:05;96857.00;;;16.21;98.29
77003;BME280;65939;50.060;14.288;2023-09-18T05:27:07;96861.06;;;16.23;99.22
77003;BME280;65939;50.060;14.288;2023-09-18T05:29:07;96854.59;;;16.26;98.40
77003;BME280;65939;50.060;14.288;2023-09-18T05:31:10;96849.72;;;16.30;98.21
77003;BME280;65939;50.060;14.288;2023-09-18T05:33:10;96846.47;;;16.34;98.36
77003;BME280;65939;50.060;14.288;2023-09-18T05:35:11;96836.34;;;16.38;99.05
77003;BME280;65939;50.060;14.288;2023-09-18T05:37:13;96830.66;;;16.41;97.96
77003;BME280;65939;50.060;14.288;2023-09-18T05:39:14;96838.19;;;16.44;99.05
77003;BME280;65939;50.060;14.288;2023-09-18T05:41:14;96830.66;;;16.47;98.07
77003;BME280;65939;50.060;14.288;2023-09-18T05:43:15;96834.69;;;16.50;98.55
77003;BME280;65939;50.060;14.288;2023-09-18T05:45:16;96835.91;;;16.54;98.68
77003;BME280;65939;50.060;14.288;2023-09-18T05:47:17;96840.59;;;16.59;97.84
77003;BME280;65939;50.060;14.288;2023-09-18T05:49:17;96841.00;;;16.62;98.13
77003;BME280;65939;50.060;14.288;2023-09-18T05:51:18;96835.31;;;16.65;98.02
77003;BME280;65939;50.060;14.288;2023-09-18T05:53:20;96822.53;;;16.69;97.40
77003;BME280;65939;50.060;14.288;2023-09-18T05:55:20;96816.81;;;16.72;97.95
77003;BME280;65939;50.060;14.288;2023-09-18T05:57:21;96819.91;;;16.75;97.39
77003;BME280;65939;50.060;14.288;2023-09-18T05:59:22;96823.75;;;16.80;97.32
77003;BME280;65939;50.060;14.288;2023-09-18T06:01:22;96822.31;;;16.84;96.53
77003;BME280;65939;50.060;14.288;2023-09-18T06:03:23;96825.75;;;16.91;96.03
77003;BME280;65939;50.060;14.288;2023-09-18T06:05:24;96814.38;;;16.97;96.27
77003;BME280;65939;50.060;14.288;2023-09-18T06:07:26;96826.13;;;17.01;95.16
77003;BME280;65939;50.060;14.288;2023-09-18T06:09:27;96821.03;;;17.06;95.72
77003;BME280;65939;50.060;14.288;2023-09-18T06:11:28;96815.97;;;17.11;95.85
77003;BME280;65939;50.060;14.288;2023-09-18T06:13:28;96822.44;;;17.15;95.59
77003;BME280;65939;50.060;14.288;2023-09-18T06:15:30;96825.88;;;17.22;94.61
77003;BME280;65939;50.060;14.288;2023-09-18T06:17:30;96820.16;;;17.26;95.36
77003;BME280;65939;50.060;14.288;2023-09-18T06:19:31;96817.09;;;17.29;94.10
77003;BME280;65939;50.060;14.288;2023-09-18T06:21:33;96815.44;;;17.34;94.33
77003;BME280;65939;50.060;14.288;2023-09-18T06:23:34;96811.75;;;17.42;94.61
77003;BME280;65939;50.060;14.288;2023-09-18T06:25:34;96804.63;;;17.49;94.37
77003;BME280;65939;50.060;14.288;2023-09-18T06:27:36;96801.94;;;17.56;93.76
77003;BME280;65939;50.060;14.288;2023-09-18T06:29:37;96799.84;;;17.64;93.71
77003;BME280;65939;50.060;14.288;2023-09-18T06:31:42;96810.38;;;17.71;93.57
77003;BME280;65939;50.060;14.288;2023-09-18T06:33:42;96807.72;;;17.78;93.47
77003;BME280;65939;50.060;14.288;2023-09-18T06:35:43;96819.88;;;17.85;93.00
77003;BME280;65939;50.060;14.288;2023-09-18T06:37:43;96812.72;;;17.92;92.38
77003;BME280;65939;50.060;14.288;2023-09-18T06:39:44;96812.66;;;17.99;91.88
77003;BME280;65939;50.060;14.288;2023-09-18T06:41:45;96811.81;;;18.05;91.35
77003;BME280;65939;50.060;14.288;2023-09-18T06:43:45;96806.25;;;18.13;91.90
77003;BME280;65939;50.060;14.288;2023-09-18T06:45:46;96810.25;;;18.23;91.80
77003;BME280;65939;50.060;14.288;2023-09-18T06:47:47;96804.69;;;18.31;91.37
77003;BME280;65939;50.060;14.288;2023-09-18T06:49:47;96807.88;;;18.39;90.21
77003;BME280;65939;50.060;14.288;2023-09-18T06:51:48;96808.41;;;18.48;90.32
77003;BME280;65939;50.060;14.288;2023-09-18T06:53:49;96804.69;;;18.56;89.90
77003;BME280;65939;50.060;14.288;2023-09-18T06:55:49;96801.97;;;18.62;89.00
77003;BME280;65939;50.060;14.288;2023-09-18T06:57:50;96808.81;;;18.70;88.72
77003;BME280;65939;50.060;14.288;2023-09-18T06:59:52;96804.88;;;18.79;88.50
77003;BME280;65939;50.060;14.288;2023-09-18T07:01:53;96806.66;;;18.85;88.64
77003;BME280;65939;50.060;14.288;2023-09-18T07:03:53;96807.41;;;18.93;88.03
77003;BME280;65939;50.060;14.288;2023-09-18T07:05:54;96807.31;;;18.99;87.81
77003;BME280;65939;50.060;14.288;2023-09-18T07:07:55;96805.38;;;19.06;87.59
77003;BME280;65939;50.060;14.288;2023-09-18T07:09:57;96809.81;;;19.12;86.92
77003;BME280;65939;50.060;14.288;2023-09-18T07:11:58;96812.16;;;19.21;86.61
77003;BME280;65939;50.060;14.288;2023-09-18T07:13:59;96812.88;;;19.28;86.41
77003;BME280;65939;50.060;14.288;2023-09-18T07:15:59;96809.34;;;19.34;85.81
77003;BME280;65939;50.060;14.288;2023-09-18T07:18:00;96817.22;;;19.41;85.35
77003;BME280;65939;50.060;14.288;2023-09-18T07:20:01;96808.94;;;19.49;84.46
77003;BME280;65939;50.060;14.288;2023-09-18T07:22:10;96814.16;;;19.55;84.53
77003;BME280;65939;50.060;14.288;2023-09-18T07:24:11;96809.00;;;19.60;84.17
77003;BME280;65939;50.060;14.288;2023-09-18T07:26:16;96803.88;;;19.66;84.03
77003;BME280;65939;50.060;14.288;2023-09-18T07:28:17;96805.84;;;19.70;84.21
77003;BME280;65939;50.060;14.288;2023-09-18T07:30:19;96800.44;;;19.77;83.96
77003;BME280;65939;50.060;14.288;2023-09-18T07:32:22;96803.81;;;19.84;83.07
77003;BME280;65939;50.060;14.288;2023-09-18T07:34:23;96788.25;;;19.88;82.95
77003;BME280;65939;50.060;14.288;2023-09-18T07:36:24;96789.78;;;19.95;82.88
77003;BME280;65939;50.060;14.288;2023-09-18T07:38:24;96790.03;;;20.05;83.12
77003;BME280;65939;50.060;14.288;2023-09-18T07:40:25;96790.72;;;20.13;81.89
77003;BME280;65939;50.060;14.288;2023-09-18T07:42:26;96790.63;;;20.19;81.81
77003;BME280;65939;50.060;14.288;2023-09-18T07:44:27;96787.63;;;20.27;81.58
77003;BME280;65939;50.060;14.288;2023-09-18T07:46:28;96777.72;;;20.34;81.96
77003;BME280;65939;50.060;14.288;2023-09-18T07:48:28;96776.00;;;20.40;81.20
77003;BME280;65939;50.060;14.288;2023-09-18T07:50:29;96774.28;;;20.46;80.90
77003;BME280;65939;50.060;14.288;2023-09-18T07:52:32;96774.19;;;20.52;80.16
77003;BME280;65939;50.060;14.288;2023-09-18T07:54:33;96773.59;;;20.62;80.07
77003;BME280;65939;50.060;14.288;2023-09-18T07:56:33;96770.03;;;20.68;79.49
77003;BME280;65939;50.060;14.288;2023-09-18T07:58:34;96772.31;;;20.76;79.01
77003;BME280;65939;50.060;14.288;2023-09-18T08:00:38;96777.38;;;20.90;78.57
77003;BME280;65939;50.060;14.288;2023-09-18T08:02:40;96783.69;;;21.00;78.00
77003;BME280;65939;50.060;14.288;2023-09-18T08:04:41;96792.69;;;21.11;77.15
77003;BME280;65939;50.060;14.288;2023-09-18T08:06:43;96790.44;;;21.20;77.71
77003;BME280;65939;50.060;14.288;2023-09-18T08:08:43;96785.81;;;21.27;77.23
77003;BME280;65939;50.060;14.288;2023-09-18T08:10:44;96787.09;;;21.36;77.23
77003;BME280;65939;50.060;14.288;2023-09-18T08:12:45;96789.38;;;21.44;77.03
77003;BME280;65939;50.060;14.288;2023-09-18T08:14:45;96782.06;;;21.51;76.16
77003;BME280;65939;50.060;14.288;2023-09-18T08:16:47;96778.94;;;21.55;76.18
77003;BME280;65939;50.060;14.288;2023-09-18T08:18:47;96774.75;;;21.59;75.84
77003;BME280;65939;50.060;14.288;2023-09-18T08:20:48;96774.59;;;21.65;76.41
77003;BME280;65939;50.060;14.288;2023-09-18T08:22:49;96780.34;;;21.74;76.19
77003;BME280;65939;50.060;14.288;2023-09-18T08:24:52;96767.78;;;21.86;75.98
77003;BME280;65939;50.060;14.288;2023-09-18T08:26:53;96759.41;;;21.94;75.74
77003;BME280;65939;50.060;14.288;2023-09-18T08:28:54;96756.69;;;22.06;75.17
77003;BME280;65939;50.060;14.288;2023-09-18T08:30:55;96758.25;;;22.19;74.93
77003;BME280;65939;50.060;14.288;2023-09-18T08:32:55;96769.03;;;22.29;74.81
77003;BME280;65939;50.060;14.288;2023-09-18T08:34:56;96784.34;;;22.39;74.49
77003;BME280;65939;50.060;14.288;2023-09-18T08:36:57;96787.97;;;22.50;74.40
77003;BME280;65939;50.060;14.288;2023-09-18T08:38:57;96802.78;;;22.62;73.91
77003;BME280;65939;50.060;14.288;2023-09-18T08:40:58;96801.63;;;22.75;73.92
77003;BME280;65939;50.060;14.288;2023-09-18T08:43:00;96789.00;;;22.87;73.44
77003;BME280;65939;50.060;14.288;2023-09-18T08:45:08;96790.81;;;22.99;72.79
77003;BME280;65939;50.060;14.288;2023-09-18T08:47:14;96770.94;;;23.06;72.86
77003;BME280;65939;50.060;14.288;2023-09-18T08:49:17;96764.34;;;23.14;72.17
77003;BME280;65939;50.060;14.288;2023-09-18T08:51:18;96760.22;;;23.23;71.78
77003;BME280;65939;50.060;14.288;2023-09-18T08:53:19;96767.50;;;23.33;71.55
77003;BME280;65939;50.060;14.288;2023-09-18T08:55:20;96767.06;;;23.41;71.46
77003;BME280;65939;50.060;14.288;2023-09-18T08:57:21;96766.34;;;23.51;71.16
77003;BME280;65939;50.060;14.288;2023-09-18T08:59:25;96762.41;;;23.58;70.46
77003;BME280;65939;50.060;14.288;2023-09-18T09:01:27;96756.44;;;23.68;70.24
77003;BME280;65939;50.060;14.288;2023-09-18T09:03:28;96758.94;;;23.80;70.47
77003;BME280;65939;50.060;14.288;2023-09-18T09:05:29;96766.00;;;23.96;70.16
77003;BME280;65939;50.060;14.288;2023-09-18T09:07:29;96768.00;;;24.11;70.02
77003;BME280;65939;50.060;14.288;2023-09-18T09:09:31;96758.75;;;24.24;69.24
77003;BME280;65939;50.060;14.288;2023-09-18T09:11:32;96751.06;;;24.32;68.90
77003;BME280;65939;50.060;14.288;2023-09-18T09:13:33;96750.38;;;24.42;68.78
77003;BME280;65939;50.060;14.288;2023-09-18T09:15:47;96748.03;;;24.51;68.94
77003;BME280;65939;50.060;14.288;2023-09-18T09:17:49;96748.06;;;24.61;68.36
77003;BME280;65939;50.060;14.288;2023-09-18T09:19:50;96768.69;;;24.71;68.33
77003;BME280;65939;50.060;14.288;2023-09-18T09:21:51;96761.00;;;24.79;68.21
77003;BME280;65939;50.060;14.288;2023-09-18T09:23:53;96745.53;;;24.87;66.93
77003;BME280;65939;50.060;14.288;2023-09-18T09:26:00;96733.53;;;24.89;66.59
77003;BME280;65939;50.060;14.288;2023-09-18T09:28:12;96718.34;;;24.95;66.38
77003;BME280;65939;50.060;14.288;2023-09-18T09:30:19;96718.63;;;25.03;66.17
77003;BME280;65939;50.060;14.288;2023-09-18T09:32:19;96728.59;;;25.13;65.98
77003;BME280;65939;50.060;14.288;2023-09-18T09:34:27;96725.94;;;25.23;66.11
77003;BME280;65939;50.060;14.288;2023-09-18T09:36:30;96724.34;;;25.32;65.91
77003;BME280;65939;50.060;14.288;2023-09-18T09:38:32;96731.06;;;25.40;65.32
77003;BME280;65939;50.060;14.288;2023-09-18T09:40:34;96730.28;;;25.45;65.32
77003;BME280;65939;50.060;14.288;2023-09-18T09:42:41;96728.13;;;25.47;64.31
77003;BME280;65939;50.060;14.288;2023-09-18T09:44:42;96720.66;;;25.54;64.77
77003;BME280;65939;50.060;14.288;2023-09-18T09:46:49;96712.91;;;25.58;63.79
77003;BME280;65939;50.060;14.288;2023-09-18T10:01:32;96707.28;;;25.34;65.19
77003;BME280;65939;50.060;14.288;2023-09-18T10:03:36;96721.72;;;25.53;64.92
77003;BME280;65939;50.060;14.288;2023-09-18T10:05:43;96715.59;;;25.73;65.01
77003;BME280;65939;50.060;14.288;2023-09-18T10:07:45;96713.22;;;25.92;64.34
77003;BME280;65939;50.060;14.288;2023-09-18T10:09:47;96696.09;;;26.08;63.92
77003;BME280;65939;50.060;14.288;2023-09-18T10:11:54;96687.50;;;26.26;63.55
77003;BME280;65939;50.060;14.288;2023-09-18T10:14:08;96691.72;;;26.43;62.87
77003;BME280;65939;50.060;14.288;2023-09-18T10:16:12;96695.22;;;26.59;63.58
77003;BME280;65939;50.060;14.288;2023-09-18T10:20:24;96695.09;;;26.89;62.10
77003;BME280;65939;50.060;14.288;2023-09-18T10:22:31;96690.22;;;27.02;62.30
77003;BME280;65939;50.060;14.288;2023-09-18T10:24:39;96686.97;;;27.15;61.71
77003;BME280;65939;50.060;14.288;2023-09-18T10:26:55;96687.16;;;27.29;62.20
77003;BME280;65939;50.060;14.288;2023-09-18T10:28:57;96688.97;;;27.38;60.99
77003;BME280;65939;50.060;14.288;2023-09-18T10:31:00;96688.38;;;27.47;61.09
77003;BME280;65939;50.060;14.288;2023-09-18T10:33:01;96694.50;;;27.52;61.49
77003;BME280;65939;50.060;14.288;2023-09-18T10:35:05;96690.16;;;27.61;60.82
77003;BME280;65939;50.060;14.288;2023-09-18T10:37:08;96684.72;;;27.72;60.24
77003;BME280;65939;50.060;14.288;2023-09-18T10:39:10;96686.28;;;27.78;59.77
77003;BME280;65939;50.060;14.288;2023-09-18T10:41:14;96687.28;;;27.87;60.13
77003;BME280;65939;50.060;14.288;2023-09-18T10:43:17;96684.00;;;27.95;60.33
77003;BME280;65939;50.060;14.288;2023-09-18T10:45:19;96678.88;;;27.99;59.78
77003;BME280;65939;50.060;14.288;2023-09-18T10:47:21;96678.00;;;28.03;59.57
77003;BME280;65939;50.060;14.288;2023-09-18T10:49:22;96674.22;;;28.09;59.65
77003;BME280;65939;50.060;14.288;2023-09-18T10:51:24;96676.03;;;28.14;59.66
77003;BME280;65939;50.060;14.288;2023-09-18T10:53:26;96667.16;;;28.19;58.83